Corsica, South Dakota
Current Conditions -  °F | °C
As of 12:53 PM on Wednesday 26 Nov 2014 (Local Time) from KMHE Reporting Station
Broken Clouds Broken Clouds  
Wind Chill: -1°   Ceiling: 1300
Heat Index: 15°   Visibility: 10mi
Dew Point:   Wind: 17mph
Humidity: 77%   Direction: 330°NNW
Pressure: 30.34"   Gusts: NA
Location:  43.43°N, 98.41°W
Report Text: KMHE 261853Z AUTO 33015KT 10SM BKN013 M09/M13 A3034 RMK AO2 SNB32E43 SLP295 P0000 T10941128
Loading
Personal Weather Stations






























Interactive Weather Map New forecast layout! Learn more

10-Day Weather Forecast

Advertisements
Track Severe Weather on mobile